createdAt,value
2024-03-02T00:01:36.246Z,48.33
2024-03-02T00:04:05.373Z,43.92
2024-03-02T00:06:32.062Z,50.03
2024-03-02T00:09:00.174Z,47.92
2024-03-02T00:11:26.691Z,51.83
2024-03-02T00:13:55.318Z,50.05
2024-03-02T00:16:21.869Z,50.60
2024-03-02T00:18:48.383Z,52.45
2024-03-02T00:21:17.414Z,51.45
2024-03-02T00:23:43.917Z,53.22
2024-03-02T00:26:12.656Z,53.92
2024-03-02T00:28:40.898Z,55.22
2024-03-02T00:31:10.206Z,53.47
2024-03-02T00:33:38.329Z,56.08
2024-03-02T00:36:05.712Z,59.35
2024-03-02T00:38:32.372Z,57.40
2024-03-02T00:41:06.194Z,57.25
2024-03-02T00:43:47.582Z,52.10
2024-03-02T00:46:17.481Z,55.97
2024-03-02T00:48:59.297Z,57.90
2024-03-02T00:51:27.544Z,58.10
2024-03-02T00:53:58.358Z,55.13
2024-03-02T00:56:25.533Z,58.03
2024-03-02T00:58:53.011Z,57.50
2024-03-02T01:01:20.757Z,54.28
2024-03-02T01:03:47.300Z,55.30
2024-03-02T01:06:14.140Z,60.25
2024-03-02T01:08:40.636Z,55.70
2024-03-02T01:11:07.484Z,53.20
2024-03-02T01:13:34.085Z,57.85
2024-03-02T01:16:01.033Z,57.17
2024-03-02T01:18:27.827Z,54.17
2024-03-02T01:20:57.085Z,56.60
2024-03-02T01:23:24.507Z,55.80
2024-03-02T01:25:52.587Z,60.38
2024-03-02T01:28:22.782Z,58.67
2024-03-02T01:30:50.310Z,60.75
2024-03-02T01:33:19.334Z,59.35
2024-03-02T01:35:46.500Z,58.08
2024-03-02T01:38:12.952Z,61.58
2024-03-02T01:40:39.475Z,62.33
2024-03-02T01:43:09.054Z,59.05
2024-03-02T01:45:37.020Z,61.67
2024-03-02T01:48:05.377Z,62.88
2024-03-02T01:50:35.593Z,58.42
2024-03-02T01:53:04.000Z,61.13
2024-03-02T01:55:31.677Z,58.50
2024-03-02T01:57:58.957Z,60.50
2024-03-02T02:00:27.300Z,61.22
2024-03-02T02:02:54.650Z,62.90
2024-03-02T02:05:21.213Z,64.38
2024-03-02T02:07:47.678Z,64.85
2024-03-02T02:10:14.196Z,62.58
2024-03-02T02:12:40.846Z,61.15
2024-03-02T02:15:29.653Z,61.25
2024-03-02T02:17:57.182Z,61.53
2024-03-02T02:20:25.338Z,62.08
2024-03-02T02:22:56.106Z,62.92
2024-03-02T02:25:22.546Z,68.40
2024-03-02T02:27:49.020Z,65.63
2024-03-02T02:30:21.017Z,68.35
2024-03-02T02:32:47.696Z,71.78
2024-03-02T02:35:14.233Z,64.40
2024-03-02T02:37:40.949Z,68.78
2024-03-02T02:40:08.190Z,69.82
2024-03-02T02:42:34.809Z,75.95
2024-03-02T02:45:01.345Z,71.63
2024-03-02T02:47:28.009Z,68.35
2024-03-02T02:49:54.432Z,69.10
2024-03-02T02:52:22.325Z,73.20
2024-03-02T02:54:48.772Z,70.00
2024-03-02T02:57:15.313Z,70.88
2024-03-02T03:00:42.052Z,72.60
2024-03-02T03:03:08.612Z,73.88
2024-03-02T03:05:35.260Z,74.38
2024-03-02T03:08:01.871Z,71.90
2024-03-02T03:10:28.926Z,71.80
2024-03-02T03:12:57.298Z,71.45
2024-03-02T03:15:24.191Z,74.82
2024-03-02T03:17:51.926Z,71.28
2024-03-02T03:20:18.681Z,70.28
2024-03-02T03:22:45.220Z,76.32
2024-03-02T03:25:11.703Z,76.28
2024-03-02T03:27:38.352Z,75.95
2024-03-02T03:30:07.075Z,75.07
2024-03-02T03:32:33.617Z,73.65
2024-03-02T03:35:00.111Z,73.65
2024-03-02T03:37:33.648Z,68.85
2024-03-02T03:40:00.943Z,72.57
2024-03-02T03:42:27.879Z,65.75
2024-03-02T03:44:54.437Z,69.38
2024-03-02T03:47:21.251Z,66.68
2024-03-02T03:49:47.658Z,71.75
2024-03-02T03:52:14.193Z,66.07
2024-03-02T03:54:40.632Z,71.78
2024-03-02T03:57:07.023Z,67.38
2024-03-02T03:59:33.503Z,70.20
2024-03-02T04:01:59.882Z,70.30
2024-03-02T04:04:26.285Z,68.20
2024-03-02T04:06:52.761Z,69.55
2024-03-02T04:09:19.555Z,65.70
2024-03-02T04:11:46.089Z,66.80
2024-03-02T04:14:13.675Z,62.90
2024-03-02T04:16:40.182Z,67.63
2024-03-02T04:19:06.618Z,61.50
2024-03-02T04:21:33.382Z,64.80
2024-03-02T04:24:00.353Z,67.22
2024-03-02T04:26:27.222Z,59.45
2024-03-02T04:28:55.345Z,59.42
2024-03-02T04:31:25.248Z,64.15
2024-03-02T04:33:51.781Z,63.70
2024-03-02T04:36:18.812Z,62.90
2024-03-02T04:38:45.369Z,61.42
2024-03-02T04:41:11.756Z,62.85
2024-03-02T04:43:38.329Z,61.58
2024-03-02T04:46:05.739Z,54.72
2024-03-02T04:48:32.208Z,66.90
2024-03-02T04:50:58.671Z,62.72
2024-03-02T04:53:25.391Z,62.83
2024-03-02T04:56:10.202Z,62.28
2024-03-02T04:58:36.708Z,58.85
2024-03-02T05:01:03.314Z,58.30
2024-03-02T05:03:29.805Z,60.30
2024-03-02T05:05:57.107Z,61.33
2024-03-02T05:08:23.581Z,58.40
2024-03-02T05:10:50.231Z,58.35
2024-03-02T05:13:18.593Z,63.10
2024-03-02T05:15:45.097Z,61.75
2024-03-02T05:18:14.636Z,57.47
2024-03-02T05:20:41.066Z,59.65
2024-03-02T05:23:07.587Z,62.58
2024-03-02T05:25:36.492Z,55.30
2024-03-02T05:28:03.266Z,58.78
2024-03-02T05:30:29.878Z,59.88
2024-03-02T05:32:56.610Z,60.58
2024-03-02T05:35:25.703Z,57.60
2024-03-02T05:37:52.111Z,64.68
2024-03-02T05:40:19.548Z,60.03
2024-03-02T05:42:46.950Z,59.13
2024-03-02T05:45:13.474Z,60.63
2024-03-02T05:47:40.259Z,55.75
2024-03-02T05:50:08.188Z,62.53
2024-03-02T05:52:34.607Z,62.50
2024-03-02T05:55:01.202Z,62.60
2024-03-02T05:57:45.956Z,60.70
2024-03-02T06:00:12.781Z,57.70
2024-03-02T06:02:42.172Z,61.08
2024-03-02T06:05:08.600Z,56.00
2024-03-02T06:07:35.032Z,58.72
2024-03-02T06:10:01.583Z,56.30
2024-03-02T06:12:28.144Z,61.10
2024-03-02T06:14:54.612Z,57.97
2024-03-02T06:17:21.017Z,61.33
2024-03-02T06:19:47.547Z,59.17
2024-03-02T06:22:14.039Z,65.10
2024-03-02T06:24:40.757Z,66.75
2024-03-02T06:27:07.186Z,60.47
2024-03-02T06:32:01.646Z,62.30
2024-03-02T06:34:28.058Z,60.83
2024-03-02T06:36:54.757Z,56.47
2024-03-02T06:39:21.235Z,59.50
2024-03-02T06:41:50.525Z,57.55
2024-03-02T06:44:17.016Z,59.63
2024-03-02T06:46:43.684Z,64.50
2024-03-02T06:49:11.635Z,62.70
2024-03-02T06:51:38.228Z,58.75
2024-03-02T06:54:04.682Z,59.85
2024-03-02T06:56:31.881Z,57.97
2024-03-02T06:58:58.481Z,60.47
2024-03-02T07:01:27.285Z,58.58
2024-03-02T07:03:53.808Z,58.88
2024-03-02T07:06:20.542Z,58.88
2024-03-02T07:08:47.229Z,58.90
2024-03-02T07:11:13.723Z,57.40
2024-03-02T07:13:40.293Z,55.92
2024-03-02T07:16:21.907Z,56.85
2024-03-02T07:18:53.168Z,56.42
2024-03-02T07:21:19.934Z,56.10
2024-03-02T07:23:46.377Z,61.15
2024-03-02T07:28:45.062Z,60.28
2024-03-02T07:31:11.501Z,55.00
2024-03-02T07:33:37.943Z,56.03
2024-03-02T07:36:05.414Z,59.83
2024-03-02T07:38:32.672Z,53.53
2024-03-02T07:40:59.210Z,52.58
2024-03-02T07:43:25.776Z,52.20
2024-03-02T07:45:52.285Z,54.92
2024-03-02T07:48:18.820Z,51.83
2024-03-02T07:50:45.799Z,52.38
2024-03-02T07:53:12.525Z,49.88
2024-03-02T07:55:38.960Z,51.72
2024-03-02T07:58:05.619Z,48.50
2024-03-02T08:00:35.402Z,51.20
2024-03-02T08:03:02.354Z,46.03
2024-03-02T08:05:28.882Z,49.33
2024-03-02T08:07:55.600Z,47.78
2024-03-02T08:10:22.008Z,47.22
2024-03-02T08:12:48.555Z,42.30
2024-03-02T08:15:15.345Z,41.70
2024-03-02T08:17:46.409Z,39.95
2024-03-02T08:20:13.539Z,43.55
2024-03-02T08:22:40.942Z,41.28
2024-03-02T08:25:09.007Z,43.70
2024-03-02T08:27:35.739Z,40.80
2024-03-02T08:30:07.388Z,42.78
2024-03-02T08:32:33.868Z,41.75
2024-03-02T08:35:00.844Z,39.47
2024-03-02T08:37:27.723Z,40.08
2024-03-02T08:39:54.339Z,40.63
2024-03-02T08:42:20.866Z,42.03
2024-03-02T08:44:48.866Z,39.08
2024-03-02T08:47:15.315Z,36.92
2024-03-02T08:49:41.713Z,36.00
2024-03-02T08:52:08.370Z,37.78
2024-03-02T08:54:36.711Z,37.70
2024-03-02T08:57:03.206Z,36.72
2024-03-02T08:59:29.649Z,38.05
2024-03-02T09:01:58.061Z,37.47
2024-03-02T09:04:27.161Z,38.53
2024-03-02T09:06:54.733Z,37.13
2024-03-02T09:09:21.301Z,37.88
2024-03-02T09:11:47.926Z,39.92
2024-03-02T09:14:16.075Z,37.67
2024-03-02T09:16:43.481Z,35.10
2024-03-02T09:19:11.347Z,35.30
2024-03-02T09:21:37.977Z,34.03
2024-03-02T09:24:04.779Z,33.15
2024-03-02T09:26:31.222Z,33.47
2024-03-02T09:28:57.679Z,28.85
2024-03-02T09:31:24.386Z,31.88
2024-03-02T09:33:50.842Z,27.42
2024-03-02T09:36:19.273Z,27.92
2024-03-02T09:38:45.953Z,30.02
2024-03-02T09:41:13.096Z,26.38
2024-03-02T09:43:40.144Z,24.10
2024-03-02T09:46:07.477Z,24.40
2024-03-02T09:48:34.025Z,24.83
2024-03-02T09:51:02.904Z,23.27
2024-03-02T09:53:32.587Z,23.52
2024-03-02T09:56:00.683Z,24.85
2024-03-02T09:58:27.373Z,21.40
2024-03-02T10:00:53.950Z,18.88
2024-03-02T10:03:20.854Z,18.77
2024-03-02T10:05:47.597Z,18.20
2024-03-02T10:08:14.007Z,19.20
2024-03-02T10:10:41.686Z,17.38
2024-03-02T10:13:09.729Z,18.17
2024-03-02T10:15:38.502Z,17.08
2024-03-02T10:18:05.764Z,16.00
2024-03-02T10:20:34.452Z,17.27
2024-03-02T10:23:14.909Z,17.25
2024-03-02T10:25:50.883Z,17.03
2024-03-02T10:28:22.597Z,15.25
2024-03-02T10:30:51.295Z,18.33
2024-03-02T10:33:18.519Z,14.27
2024-03-02T10:35:45.109Z,13.07
2024-03-02T10:38:12.320Z,13.98
2024-03-02T10:40:38.810Z,16.30
2024-03-02T10:43:06.828Z,16.08
2024-03-02T10:45:33.957Z,15.05
2024-03-02T10:48:03.189Z,13.57
2024-03-02T10:50:30.064Z,14.82
2024-03-02T10:52:56.635Z,14.25
2024-03-02T10:55:23.190Z,12.68
2024-03-02T10:57:54.833Z,14.30
2024-03-02T11:00:28.291Z,13.50
2024-03-02T11:03:01.105Z,12.50
2024-03-02T11:05:29.677Z,13.82
2024-03-02T11:08:03.846Z,11.63
2024-03-02T11:10:59.894Z,13.27
2024-03-02T11:13:35.827Z,13.43
2024-03-02T11:16:11.626Z,11.80
2024-03-02T11:18:38.424Z,12.15
2024-03-02T11:21:05.189Z,11.50
2024-03-02T11:23:35.307Z,11.25
2024-03-02T11:26:21.583Z,10.98
2024-03-02T11:28:48.178Z,11.65
2024-03-02T11:31:15.058Z,12.00
2024-03-02T11:33:41.588Z,12.38
2024-03-02T11:36:10.601Z,10.98
2024-03-02T11:38:37.812Z,12.55
2024-03-02T11:41:08.366Z,12.18
2024-03-02T11:43:41.656Z,13.20
2024-03-02T11:46:08.942Z,12.48
2024-03-02T11:48:40.652Z,12.15
2024-03-02T11:51:07.266Z,11.68
2024-03-02T11:53:36.167Z,11.45
2024-03-02T11:56:03.452Z,12.02
2024-03-02T11:58:30.587Z,11.98
2024-03-02T12:00:57.707Z,11.20
2024-03-02T12:03:26.712Z,11.88
2024-03-02T12:05:56.618Z,12.00
2024-03-02T12:08:24.524Z,13.10
2024-03-02T12:11:02.173Z,13.25
2024-03-02T12:13:29.454Z,12.43
2024-03-02T12:15:57.192Z,12.85
2024-03-02T12:18:23.972Z,11.98
2024-03-02T12:20:57.501Z,12.63
2024-03-02T12:23:24.109Z,14.40
2024-03-02T12:25:50.835Z,13.52
2024-03-02T12:28:17.340Z,12.32
2024-03-02T12:30:44.106Z,16.90
2024-03-02T12:33:12.438Z,13.55
2024-03-02T12:35:39.405Z,13.73
2024-03-02T12:38:06.413Z,13.88
2024-03-02T12:40:33.040Z,12.00
2024-03-02T12:42:59.844Z,13.20
2024-03-02T12:45:27.033Z,12.15
2024-03-02T12:47:54.010Z,13.98
2024-03-02T12:50:21.686Z,13.63
2024-03-02T12:52:55.271Z,12.63
2024-03-02T12:55:23.359Z,12.88
2024-03-02T12:57:52.267Z,13.40
2024-03-02T13:00:20.357Z,14.82
2024-03-02T13:02:47.417Z,14.55
2024-03-02T13:05:14.295Z,14.30
2024-03-02T13:07:41.987Z,16.92
2024-03-02T13:10:11.357Z,15.75
2024-03-02T13:12:38.484Z,15.63
2024-03-02T13:15:06.579Z,15.57
2024-03-02T13:17:37.927Z,15.60
2024-03-02T13:20:09.584Z,15.48
2024-03-02T13:22:36.310Z,13.57
2024-03-02T13:25:05.120Z,13.35
2024-03-02T13:27:35.541Z,14.65
2024-03-02T13:30:03.924Z,12.83
2024-03-02T13:32:30.712Z,12.60
2024-03-02T13:34:57.172Z,12.27
2024-03-02T13:37:23.702Z,15.27
2024-03-02T13:39:50.581Z,16.20
2024-03-02T13:42:17.670Z,14.88
2024-03-02T13:44:46.725Z,16.63
2024-03-02T13:47:13.309Z,17.80
2024-03-02T13:49:46.402Z,16.58
2024-03-02T13:52:14.383Z,17.05
2024-03-02T13:54:41.709Z,16.40
2024-03-02T13:57:09.617Z,14.85
2024-03-02T13:59:36.609Z,16.30
2024-03-02T14:02:06.637Z,15.63
2024-03-02T14:04:36.879Z,16.25
2024-03-02T14:07:03.997Z,13.77
2024-03-02T14:09:30.775Z,11.80
2024-03-02T14:11:57.643Z,11.60
2024-03-02T14:14:24.483Z,11.70
2024-03-02T14:16:50.948Z,11.18
2024-03-02T14:19:17.698Z,10.75
2024-03-02T14:21:44.300Z,12.70
2024-03-02T14:24:11.029Z,11.27
2024-03-02T14:26:38.009Z,11.07
2024-03-02T14:29:05.349Z,10.88
2024-03-02T14:31:34.948Z,12.05
2024-03-02T14:34:01.739Z,11.10
2024-03-02T14:36:31.150Z,11.00
2024-03-02T14:38:57.605Z,11.40
2024-03-02T14:41:25.772Z,10.45
2024-03-02T14:43:52.655Z,12.82
2024-03-02T14:46:19.372Z,12.15
2024-03-02T14:48:47.593Z,14.63
2024-03-02T14:51:14.742Z,15.95
2024-03-02T14:53:41.314Z,16.88
2024-03-02T14:56:08.148Z,16.92
2024-03-02T14:58:36.433Z,16.27
2024-03-02T15:01:03.066Z,16.13
2024-03-02T15:03:30.426Z,17.73
2024-03-02T15:05:57.841Z,15.75
2024-03-02T15:08:24.310Z,16.35
2024-03-02T15:10:51.101Z,17.60
2024-03-02T15:13:17.666Z,17.05
2024-03-02T15:15:44.255Z,14.75
2024-03-02T15:18:10.816Z,14.95
2024-03-02T15:20:37.330Z,14.77
2024-03-02T15:23:04.350Z,17.08
2024-03-02T15:25:31.483Z,15.70
2024-03-02T15:27:57.957Z,15.85
2024-03-02T15:30:24.963Z,15.50
2024-03-02T15:32:52.644Z,14.98
2024-03-02T15:35:19.373Z,14.75
2024-03-02T15:37:45.813Z,15.55
2024-03-02T15:40:12.533Z,14.35
2024-03-02T15:42:39.115Z,15.50
2024-03-02T15:45:06.221Z,13.93
2024-03-02T15:47:32.887Z,14.80
2024-03-02T15:49:59.323Z,16.00
2024-03-02T15:52:26.039Z,14.43
2024-03-02T15:54:52.630Z,13.10
2024-03-02T15:57:19.221Z,15.15
2024-03-02T15:59:45.657Z,14.25
2024-03-02T16:02:12.147Z,14.48
2024-03-02T16:04:38.817Z,13.50
2024-03-02T16:07:05.747Z,14.10
2024-03-02T16:09:32.443Z,13.70
2024-03-02T16:11:59.008Z,13.13
2024-03-02T16:14:25.493Z,12.98
2024-03-02T16:16:52.169Z,13.27
2024-03-02T16:19:25.845Z,15.13
2024-03-02T16:21:59.550Z,12.30
2024-03-02T16:24:26.359Z,13.07
2024-03-02T16:26:52.897Z,14.10
2024-03-02T16:29:19.603Z,12.93
2024-03-02T16:31:46.078Z,11.70
2024-03-02T16:34:13.151Z,13.70
2024-03-02T16:36:41.590Z,13.23
2024-03-02T16:39:09.893Z,12.48
2024-03-02T16:41:36.557Z,11.57
2024-03-02T16:44:06.805Z,13.13
2024-03-02T16:46:33.776Z,13.57
2024-03-02T16:49:00.323Z,14.38
2024-03-02T16:51:27.272Z,14.68
2024-03-02T16:53:54.015Z,16.75
2024-03-02T16:56:20.452Z,18.35
2024-03-02T16:58:47.086Z,16.88
2024-03-02T17:01:13.689Z,18.23
2024-03-02T17:03:40.188Z,15.95
2024-03-02T17:06:06.782Z,15.07
2024-03-02T17:08:33.241Z,17.05
2024-03-02T17:11:00.033Z,15.68
2024-03-02T17:13:26.614Z,14.98
2024-03-02T17:15:53.088Z,14.52
2024-03-02T17:18:19.591Z,15.13
2024-03-02T17:20:46.059Z,15.13
2024-03-02T17:23:12.476Z,15.23
2024-03-02T17:25:38.935Z,15.25
2024-03-02T17:28:22.018Z,15.07
2024-03-02T17:30:48.822Z,15.18
2024-03-02T17:33:15.394Z,13.73
2024-03-02T17:35:42.455Z,13.75
2024-03-02T17:38:08.862Z,12.45
2024-03-02T17:40:35.293Z,12.38
2024-03-02T17:43:01.965Z,14.93
2024-03-02T17:45:28.877Z,13.38
2024-03-02T17:47:55.328Z,13.45
2024-03-02T17:50:29.619Z,15.60
2024-03-02T17:52:59.234Z,16.45
2024-03-02T17:55:25.727Z,13.35
2024-03-02T17:57:52.268Z,15.27
2024-03-02T18:00:20.844Z,16.15
2024-03-02T18:02:48.215Z,13.90
2024-03-02T18:05:14.882Z,14.07
2024-03-02T18:07:41.239Z,17.60
2024-03-02T18:10:08.543Z,18.13
2024-03-02T18:12:35.109Z,20.35
2024-03-02T18:15:02.904Z,18.08
2024-03-02T18:17:29.895Z,16.65
2024-03-02T18:19:56.330Z,19.92
2024-03-02T18:22:22.953Z,22.98
2024-03-02T18:24:49.496Z,21.58
2024-03-02T18:27:16.053Z,22.77
2024-03-02T18:29:43.243Z,23.90
2024-03-02T18:32:10.897Z,25.50
2024-03-02T18:34:39.989Z,24.75
2024-03-02T18:37:07.779Z,24.97
2024-03-02T18:39:34.503Z,28.02
2024-03-02T18:42:01.271Z,25.90
2024-03-02T18:44:27.670Z,26.80
2024-03-02T18:46:54.151Z,25.92
2024-03-02T18:49:20.968Z,27.98
2024-03-02T18:51:47.435Z,25.23
2024-03-02T18:54:14.463Z,28.23
2024-03-02T18:56:40.960Z,27.50
2024-03-02T18:59:07.391Z,28.35
2024-03-02T19:01:34.083Z,28.77
2024-03-02T19:04:00.595Z,28.80
2024-03-02T19:06:27.095Z,30.35
2024-03-02T19:08:53.940Z,28.00
2024-03-02T19:11:29.785Z,27.67
2024-03-02T19:13:58.938Z,30.65
2024-03-02T19:16:25.391Z,29.08
2024-03-02T19:18:51.921Z,26.83
2024-03-02T19:21:19.882Z,28.40
2024-03-02T19:23:46.395Z,30.85
2024-03-02T19:26:19.438Z,29.15
2024-03-02T19:28:47.608Z,31.00
2024-03-02T19:31:14.471Z,30.25
2024-03-02T19:33:41.257Z,28.75
2024-03-02T19:36:08.181Z,30.48
2024-03-02T19:38:35.990Z,29.05
2024-03-02T19:41:02.587Z,29.70
2024-03-02T19:43:29.180Z,33.45
2024-03-02T19:45:55.644Z,29.92
2024-03-02T19:48:22.319Z,32.03
2024-03-02T19:50:48.980Z,32.85
2024-03-02T19:53:15.429Z,34.50
2024-03-02T19:55:45.107Z,33.20
2024-03-02T19:58:11.586Z,37.10
2024-03-02T20:00:38.450Z,34.45
2024-03-02T20:03:05.350Z,29.65
2024-03-02T20:05:31.838Z,32.88
2024-03-02T20:07:58.357Z,33.92
2024-03-02T20:10:25.666Z,33.13
2024-03-02T20:12:52.160Z,35.33
2024-03-02T20:15:19.870Z,38.15
2024-03-02T20:17:47.606Z,34.70
2024-03-02T20:20:16.663Z,33.80
2024-03-02T20:22:43.816Z,33.33
2024-03-02T20:25:14.668Z,36.95
2024-03-02T20:27:44.788Z,36.35
2024-03-02T20:30:12.570Z,37.78
2024-03-02T20:32:40.139Z,36.42
2024-03-02T20:35:07.468Z,37.20
2024-03-02T20:37:34.011Z,35.83
2024-03-02T20:40:00.759Z,37.15
2024-03-02T20:42:27.321Z,38.05
2024-03-02T20:44:54.090Z,38.55
2024-03-02T20:47:20.644Z,37.50
2024-03-02T20:49:47.176Z,38.35
2024-03-02T20:52:13.883Z,35.03
2024-03-02T20:54:40.463Z,35.67
2024-03-02T20:57:07.264Z,35.40
2024-03-02T20:59:34.743Z,34.38
2024-03-02T21:02:01.678Z,36.47
2024-03-02T21:04:28.205Z,36.17
2024-03-02T21:06:54.825Z,36.95
2024-03-02T21:09:21.536Z,38.13
2024-03-02T21:11:49.511Z,38.42
2024-03-02T21:14:16.210Z,36.28
2024-03-02T21:16:42.818Z,39.38
2024-03-02T21:19:09.971Z,40.75
2024-03-02T21:21:38.879Z,38.88
2024-03-02T21:24:05.747Z,37.17
2024-03-02T21:26:32.388Z,41.53
2024-03-02T21:28:59.755Z,36.78
2024-03-02T21:31:26.152Z,38.53
2024-03-02T21:33:52.597Z,38.38
2024-03-02T21:36:19.156Z,34.72
2024-03-02T21:38:45.758Z,36.30
2024-03-02T21:41:12.227Z,33.65
2024-03-02T21:43:40.546Z,37.13
2024-03-02T21:46:07.040Z,39.08
2024-03-02T21:48:33.862Z,37.70
2024-03-02T21:51:00.425Z,39.15
2024-03-02T21:53:26.790Z,40.25
2024-03-02T21:55:53.174Z,40.38
2024-03-02T21:58:19.678Z,37.33
2024-03-02T22:00:46.631Z,37.95
2024-03-02T22:03:13.086Z,35.17
2024-03-02T22:05:39.974Z,37.50
2024-03-02T22:08:06.612Z,36.95
2024-03-02T22:10:33.714Z,33.45
2024-03-02T22:13:01.073Z,35.50
2024-03-02T22:15:27.958Z,36.58
2024-03-02T22:17:54.579Z,35.60
2024-03-02T22:20:21.556Z,35.83
2024-03-02T22:22:48.043Z,33.35
2024-03-02T22:25:14.882Z,37.80
2024-03-02T22:27:42.454Z,36.00
2024-03-02T22:30:09.915Z,34.38
2024-03-02T22:32:36.665Z,36.97
2024-03-02T22:35:03.307Z,32.85
2024-03-02T22:37:29.665Z,37.40
2024-03-02T22:39:56.132Z,33.78
2024-03-02T22:42:22.830Z,37.20
2024-03-02T22:44:49.220Z,36.15
2024-03-02T22:47:15.916Z,38.17
2024-03-02T22:49:42.486Z,37.28
2024-03-02T22:52:09.047Z,36.13
2024-03-02T22:54:35.569Z,37.92
2024-03-02T22:57:02.342Z,37.80
2024-03-02T22:59:28.830Z,40.38
2024-03-02T23:01:55.583Z,36.88
2024-03-02T23:04:22.507Z,41.03
2024-03-02T23:06:49.604Z,41.92
2024-03-02T23:09:16.161Z,38.13
2024-03-02T23:11:42.821Z,38.75
2024-03-02T23:14:10.677Z,44.33
2024-03-02T23:16:39.697Z,44.33
2024-03-02T23:19:06.300Z,44.92
2024-03-02T23:21:32.793Z,39.42
2024-03-02T23:23:59.243Z,43.55
2024-03-02T23:26:26.099Z,42.15
2024-03-02T23:28:52.759Z,44.33
2024-03-02T23:31:19.616Z,40.78
2024-03-02T23:33:48.255Z,44.25
2024-03-02T23:36:14.987Z,47.50
2024-03-02T23:38:41.705Z,47.70
2024-03-02T23:41:08.293Z,42.08
2024-03-02T23:43:38.747Z,45.45
2024-03-02T23:46:06.174Z,49.45
2024-03-02T23:48:32.687Z,49.78
2024-03-02T23:50:59.167Z,50.97
2024-03-02T23:53:25.592Z,49.17
2024-03-02T23:55:53.204Z,52.88
2024-03-02T23:58:20.305Z,54.40
